Time;durP1;ratioP1;P1;durP2;ratioP2;P2;SDS_P1;SDS_P2;PMS_P1;PMS_P2;Temp;Humidity;BMP_temperature;BMP_pressure;BME280_temperature;BME280_humidity;BME280_pressure;Samples;Min_cycle;Max_cycle;Signal;HPM_P1;HPM_P2
2023/06/05 04:02:20;;;;;;;0.80;0.60;;;15.90;1.00;;;;;;5204439;23;21005;-72
2023/06/05 04:04:50;;;;;;;0.60;0.20;;;15.90;1.00;;;;;;4957746;29;20487;-70
2023/06/05 04:07:18;;;;;;;0.60;0.10;;;15.80;1.00;;;;;;4957266;29;20453;-71
2023/06/05 04:09:46;;;;;;;0.60;0.10;;;15.80;1.00;;;;;;4957716;29;20529;-72
2023/06/05 04:12:14;;;;;;;0.60;0.20;;;15.80;1.00;;;;;;4957454;28;20509;-71
2023/06/05 04:14:44;;;;;;;0.60;0.20;;;;;;;;;;4980118;23;20844;-73
2023/06/05 04:17:13;;;;;;;0.60;0.30;;;15.80;1.00;;;;;;4959167;29;20547;-72
2023/06/05 04:19:42;;;;;;;0.60;0.17;;;15.80;1.00;;;;;;4961219;29;20541;-73
2023/06/05 04:22:10;;;;;;;0.93;0.83;;;15.70;1.00;;;;;;4960163;29;20476;-72
2023/06/05 04:24:39;;;;;;;0.60;0.20;;;;;;;;;;4960357;28;20447;-72
2023/06/05 04:27:08;;;;;;;0.60;0.10;;;15.80;1.00;;;;;;4957643;29;20448;-71
2023/06/05 04:29:36;;;;;;;0.97;0.93;;;15.80;1.00;;;;;;4957269;29;20978;-71
2023/06/05 04:32:05;;;;;;;0.60;0.10;;;15.80;1.00;;;;;;4952286;28;20979;-72
2023/06/05 04:34:32;;;;;;;0.60;0.10;;;15.90;1.00;;;;;;4958219;28;20448;-72
2023/06/05 04:37:03;;;;;;;0.60;0.10;;;15.80;1.00;;;;;;4972708;28;21012;-72
2023/06/05 04:39:31;;;;;;;0.83;0.67;;;15.80;1.00;;;;;;4976366;28;20481;-72
2023/06/05 04:41:59;;;;;;;0.60;0.20;;;15.80;1.00;;;;;;4976234;28;20435;-72
2023/06/05 04:44:42;;;;;;;0.80;0.37;;;15.80;1.00;;;;;;4975634;28;20498;-73
2023/06/05 04:47:10;;;;;;;0.60;0.20;;;15.80;1.00;;;;;;4976055;28;20522;-72
2023/06/05 04:49:38;;;;;;;0.70;0.40;;;15.80;1.00;;;;;;4975979;28;20532;-72
2023/06/05 04:52:07;;;;;;;2.73;2.43;;;15.90;1.00;;;;;;4975916;28;20514;-73
2023/06/05 04:54:35;;;;;;;0.70;0.40;;;15.80;1.00;;;;;;4976448;28;20452;-73
2023/06/05 04:57:05;;;;;;;0.60;0.10;;;15.80;1.00;;;;;;4961556;28;20477;-72
2023/06/05 04:59:33;;;;;;;0.60;0.10;;;15.90;1.00;;;;;;4955909;29;20489;-73
2023/06/05 05:02:01;;;;;;;1.17;0.70;;;15.90;1.00;;;;;;4942093;29;20878;-77
2023/06/05 05:04:29;;;;;;;0.60;0.10;;;15.90;1.00;;;;;;4938187;29;20444;-76
2023/06/05 05:07:00;;;;;;;0.60;0.30;;;15.90;1.00;;;;;;4953324;29;20973;-76
2023/06/05 05:09:30;;;;;;;0.60;0.20;;;15.90;1.00;;;;;;4956796;29;20965;-75
2023/06/05 05:11:58;;;;;;;0.60;0.20;;;15.90;1.00;;;;;;4974054;28;20438;-76
2023/06/05 05:14:27;;;;;;;0.60;0.13;;;15.90;1.00;;;;;;4976111;28;21021;-76
2023/06/05 05:16:54;;;;;;;0.83;0.53;;;16.00;1.00;;;;;;4976332;28;20488;-76
2023/06/05 05:19:22;;;;;;;0.60;0.10;;;16.00;1.00;;;;;;4960872;28;20455;-76
2023/06/05 05:21:51;;;;;;;0.60;0.10;;;16.10;1.00;;;;;;4956867;29;20478;-76
2023/06/05 05:24:18;;;;;;;0.60;0.10;;;16.10;1.00;;;;;;4956462;29;20867;-77
2023/06/05 05:26:48;;;;;;;0.60;0.20;;;15.10;1.00;;;;;;4956516;29;20571;-75
2023/06/05 05:29:16;;;;;;;0.80;0.30;;;;;;;;;;4955965;29;20464;-76
2023/06/05 05:31:44;;;;;;;0.60;0.20;;;;;;;;;;4955954;29;20458;-74
2023/06/05 05:34:12;;;;;;;0.60;0.20;;;16.20;1.00;;;;;;4956200;29;20473;-76
2023/06/05 05:36:40;;;;;;;0.60;0.20;;;16.30;1.00;;;;;;4956025;28;20540;-77
2023/06/05 05:39:08;;;;;;;0.60;0.10;;;16.20;1.00;;;;;;4956877;29;20509;-76
2023/06/05 05:41:36;;;;;;;0.60;0.17;;;;;;;;;;4956855;29;20530;-77
2023/06/05 05:44:06;;;;;;;0.60;0.10;;;16.30;1.00;;;;;;4956815;29;20481;-77
2023/06/05 05:46:34;;;;;;;0.60;0.20;;;16.40;1.00;;;;;;4949214;28;20486;-76
2023/06/05 05:49:02;;;;;;;1.13;0.60;;;16.50;1.00;;;;;;4945762;28;20455;-76
2023/06/05 05:51:30;;;;;;;0.60;0.10;;;16.60;1.00;;;;;;4940657;29;20482;-76
2023/06/05 05:53:58;;;;;;;0.60;0.10;;;16.70;1.00;;;;;;4938119;29;20510;-75
2023/06/05 05:56:26;;;;;;;0.60;0.20;;;16.70;1.00;;;;;;4938087;29;20468;-77
2023/06/05 05:58:54;;;;;;;0.60;0.20;;;16.80;1.00;;;;;;4956345;29;20481;-74
2023/06/05 06:01:24;;;;;;;0.67;0.30;;;16.90;1.00;;;;;;4949801;29;20831;-76
2023/06/05 06:03:52;;;;;;;2.20;1.80;;;17.00;1.00;;;;;;4955642;29;20950;-75
2023/06/05 06:06:20;;;;;;;0.60;0.10;;;17.00;1.00;;;;;;4956258;28;20497;-75
2023/06/05 06:08:48;;;;;;;0.60;0.27;;;17.00;1.00;;;;;;4956960;29;20493;-75
2023/06/05 06:11:16;;;;;;;0.60;0.20;;;17.00;1.00;;;;;;4967891;28;20518;-75
2023/06/05 06:13:44;;;;;;;2.20;1.70;;;17.00;1.00;;;;;;4974197;28;20890;-75
2023/06/05 06:16:12;;;;;;;0.60;0.10;;;17.10;1.00;;;;;;4956231;28;20475;-75
2023/06/05 06:18:42;;;;;;;0.60;0.13;;;17.10;1.00;;;;;;4956705;29;20452;-76
2023/06/05 06:21:10;;;;;;;0.60;0.10;;;17.20;1.00;;;;;;4956475;29;20443;-76
2023/06/05 06:23:38;;;;;;;0.90;0.60;;;17.30;1.00;;;;;;4952093;29;20457;-76
2023/06/05 06:26:06;;;;;;;0.60;0.20;;;17.40;1.00;;;;;;4936859;29;20490;-77
2023/06/05 06:28:34;;;;;;;0.60;0.10;;;17.50;1.00;;;;;;4942343;29;20458;-74
2023/06/05 06:31:02;;;;;;;0.60;0.10;;;17.50;1.00;;;;;;4959576;28;20489;-74
2023/06/05 06:33:32;;;;;;;0.80;0.37;;;17.60;1.00;;;;;;4964142;28;20963;-76
2023/06/05 06:36:02;;;;;;;1.37;1.27;;;17.70;1.00;;;;;;4956560;29;20545;-76
2023/06/05 06:38:31;;;;;;;0.60;0.10;;;17.70;1.00;;;;;;4955570;29;20450;-73
2023/06/05 06:41:00;;;;;;;0.60;0.10;;;17.80;1.00;;;;;;4956421;29;20899;-75
2023/06/05 06:43:27;;;;;;;0.60;0.10;;;17.80;1.00;;;;;;4954844;29;20984;-76
2023/06/05 06:45:55;;;;;;;0.60;0.10;;;17.80;1.00;;;;;;4955920;29;20559;-75
2023/06/05 06:48:23;;;;;;;0.60;0.20;;;17.90;1.00;;;;;;4955254;29;20539;-75
2023/06/05 06:50:52;;;;;;;0.60;0.10;;;17.90;1.00;;;;;;4955429;29;20970;-74
2023/06/05 06:53:21;;;;;;;0.60;0.20;;;17.90;1.00;;;;;;4954724;29;20454;-75
2023/06/05 06:55:49;;;;;;;0.60;0.13;;;17.90;1.00;;;;;;4955426;29;20470;-75
2023/06/05 06:58:17;;;;;;;0.60;0.10;;;17.90;1.00;;;;;;4955580;29;20484;-75
2023/06/05 07:00:47;;;;;;;0.60;0.10;;;18.10;1.00;;;;;;4954954;28;20446;-75
2023/06/05 07:03:15;;;;;;;0.60;0.10;;;18.20;1.00;;;;;;4954616;29;20822;-76
2023/06/05 07:05:44;;;;;;;0.60;0.10;;;18.20;1.00;;;;;;4954504;29;20948;-76
2023/06/05 07:08:12;;;;;;;0.70;0.30;;;18.30;1.00;;;;;;4954404;29;20486;-76
2023/06/05 07:10:42;;;;;;;0.60;0.30;;;18.30;1.00;;;;;;4960824;28;20532;-76
2023/06/05 07:13:10;;;;;;;0.60;0.17;;;18.30;1.00;;;;;;4972057;28;20452;-77
2023/06/05 07:15:38;;;;;;;0.70;0.30;;;18.30;1.00;;;;;;4951811;29;20489;-75
2023/06/05 07:18:06;;;;;;;1.03;0.93;;;18.40;1.00;;;;;;4955650;29;20520;-76
2023/06/05 07:20:35;;;;;;;0.80;0.30;;;18.40;1.00;;;;;;4962833;29;20564;-75
2023/06/05 07:23:02;;;;;;;0.60;0.10;;;18.50;1.00;;;;;;4966332;29;20458;-77
2023/06/05 07:25:30;;;;;;;0.60;0.20;;;18.50;1.00;;;;;;4958275;29;20558;-76
2023/06/05 07:28:00;;;;;;;0.60;0.10;;;18.60;1.00;;;;;;4957035;29;20907;-76
2023/06/05 07:30:28;;;;;;;0.60;0.10;;;18.70;1.00;;;;;;4959525;28;20517;-75
2023/06/05 07:32:56;;;;;;;0.60;0.10;;;18.80;1.00;;;;;;4964664;28;20472;-75
2023/06/05 07:35:24;;;;;;;0.60;0.20;;;18.90;1.00;;;;;;4948087;29;21093;-76
2023/06/05 07:37:52;;;;;;;0.60;0.20;;;18.90;1.00;;;;;;4950127;29;20465;-76
2023/06/05 07:40:20;;;;;;;0.60;0.10;;;18.90;1.00;;;;;;4957038;28;20485;-76
2023/06/05 07:42:48;;;;;;;0.60;0.10;;;19.00;1.00;;;;;;4953628;29;20775;-76
2023/06/05 07:45:17;;;;;;;2.80;2.60;;;19.20;1.00;;;;;;4953328;28;20502;-75
2023/06/05 07:47:45;;;;;;;0.60;0.10;;;20.20;1.00;;;;;;4947222;29;20538;-77
2023/06/05 07:50:14;;;;;;;0.60;0.20;;;;;;;;;;4951524;29;20463;-74
2023/06/05 07:52:42;;;;;;;0.60;0.10;;;19.30;1.00;;;;;;4956715;28;20450;-75
2023/06/05 07:55:11;;;;;;;0.60;0.13;;;;;;;;;;4972993;28;21065;-77
2023/06/05 07:57:39;;;;;;;0.60;0.20;;;19.40;1.00;;;;;;4952313;28;20450;-75
2023/06/05 08:00:10;;;;;;;0.80;0.53;;;19.40;1.00;;;;;;4963774;28;20557;-75
2023/06/05 08:02:40;;;;;;;0.60;0.10;;;19.50;1.00;;;;;;4949913;28;20505;-75
2023/06/05 08:05:09;;;;;;;0.70;0.37;;;19.60;1.00;;;;;;4955973;28;20578;-76
2023/06/05 08:07:38;;;;;;;0.60;0.10;;;19.60;1.00;;;;;;4951736;29;20487;-76
2023/06/05 08:10:07;;;;;;;0.60;0.10;;;19.70;1.00;;;;;;4952422;29;20979;-76
2023/06/05 08:12:38;;;;;;;0.60;0.13;;;19.80;1.00;;;;;;4956067;28;20454;-78
2023/06/05 08:15:07;;;;;;;0.60;0.10;;;19.80;1.00;;;;;;4953996;28;20496;-76
2023/06/05 08:17:35;;;;;;;0.60;0.20;;;;;;;;;;4966085;28;20544;-75
2023/06/05 08:20:07;;;;;;;0.60;0.20;;;19.90;1.00;;;;;;4965550;28;20481;-76
2023/06/05 08:22:36;;;;;;;0.60;0.10;;;20.00;1.00;;;;;;4958454;29;20859;-77
2023/06/05 08:25:05;;;;;;;0.70;0.40;;;20.00;1.00;;;;;;4965634;28;20570;-75
2023/06/05 08:27:32;;;;;;;0.60;0.10;;;20.10;1.00;;;;;;4956981;28;20486;-77
2023/06/05 08:30:01;;;;;;;0.60;0.20;;;20.20;1.00;;;;;;4956854;28;20965;-77
2023/06/05 08:32:29;;;;;;;0.60;0.10;;;20.20;1.00;;;;;;4961938;28;20446;-77
2023/06/05 08:34:57;;;;;;;0.70;0.20;;;20.20;1.00;;;;;;4966679;28;20450;-76
2023/06/05 08:37:28;;;;;;;0.60;0.17;;;20.30;1.00;;;;;;4959292;28;20486;-77
2023/06/05 08:40:00;;;;;;;0.60;0.10;;;20.40;1.00;;;;;;4959794;28;20457;-77
2023/06/05 08:42:29;;;;;;;0.60;0.10;;;20.40;1.00;;;;;;4958918;28;20490;-76
2023/06/05 08:44:57;;;;;;;0.70;0.20;;;20.50;1.00;;;;;;4956434;28;20447;-77
2023/06/05 08:47:31;;;;;;;0.60;0.10;;;20.40;1.00;;;;;;4961279;28;21039;-77
2023/06/05 08:50:04;;;;;;;0.60;0.13;;;20.50;1.00;;;;;;4965247;28;20446;-77
2023/06/05 08:52:35;;;;;;;0.60;0.10;;;20.70;1.00;;;;;;4958327;28;20479;-76
2023/06/05 08:55:04;;;;;;;0.60;0.10;;;20.70;1.00;;;;;;4965460;28;20478;-79
2023/06/05 08:57:33;;;;;;;0.60;0.10;;;20.80;1.00;;;;;;4954564;28;20464;-76
2023/06/05 09:00:07;;;;;;;0.60;0.20;;;20.90;1.00;;;;;;4965560;28;20451;-76
2023/06/05 09:02:37;;;;;;;1.23;0.50;;;21.00;1.00;;;;;;4970432;28;20478;-76
2023/06/05 09:05:06;;;;;;;0.60;0.10;;;21.00;1.00;;;;;;4957055;28;20474;-76
2023/06/05 09:07:36;;;;;;;0.60;0.20;;;21.10;1.00;;;;;;4957852;28;20494;-76
2023/06/05 09:10:05;;;;;;;0.70;0.30;;;21.10;1.00;;;;;;4956869;28;20451;-76
2023/06/05 09:12:52;;;;;;;0.60;0.20;;;21.20;1.00;;;;;;4954762;28;20513;-76
2023/06/05 09:15:24;;;;;;;0.60;0.30;;;21.20;1.00;;;;;;4954506;28;20867;-77
2023/06/05 09:18:08;;;;;;;0.60;0.10;;;21.30;1.00;;;;;;4949847;29;20440;-77
2023/06/05 09:20:37;;;;;;;1.07;0.30;;;21.30;1.00;;;;;;4950872;28;20514;-77
2023/06/05 09:23:24;;;;;;;0.60;0.10;;;21.30;1.00;;;;;;4955112;28;20452;-77
2023/06/05 09:25:55;;;;;;;0.60;0.10;;;21.50;1.00;;;;;;4956062;28;20463;-76
2023/06/05 09:28:23;;;;;;;0.60;0.10;;;;;;;;;;4960126;29;20482;-76
2023/06/05 09:30:56;;;;;;;0.60;0.20;;;21.70;1.00;;;;;;4965731;28;20476;-76
2023/06/05 09:33:26;;;;;;;0.60;0.20;;;21.70;1.00;;;;;;4961057;28;20447;-78
2023/06/05 09:36:08;;;;;;;0.70;0.30;;;21.70;1.00;;;;;;4965231;28;20986;-77
2023/06/05 09:38:40;;;;;;;0.60;0.20;;;21.90;1.00;;;;;;4959613;29;20463;-77
2023/06/05 09:41:09;;;;;;;0.60;0.20;;;22.00;1.00;;;;;;4958098;29;20951;-77
2023/06/05 09:43:37;;;;;;;0.60;0.20;;;22.10;1.00;;;;;;4961011;29;20456;-78
2023/06/05 09:46:08;;;;;;;0.60;0.20;;;22.20;1.00;;;;;;4959260;28;20468;-77
2023/06/05 09:48:37;;;;;;;0.60;0.10;;;22.20;1.00;;;;;;4957933;29;20479;-77
2023/06/05 09:51:11;;;;;;;0.60;0.20;;;22.20;1.00;;;;;;4951718;29;20969;-76
2023/06/05 09:53:44;;;;;;;0.70;0.10;;;22.40;1.00;;;;;;4954424;28;20450;-76
2023/06/05 09:56:14;;;;;;;0.60;0.10;;;22.50;1.00;;;;;;4951241;28;20526;-76
2023/06/05 09:58:47;;;;;;;0.60;0.10;;;22.60;1.00;;;;;;4955803;29;20436;-77
2023/06/05 10:01:18;;;;;;;0.70;0.10;;;22.60;1.00;;;;;;4944443;29;20448;-77
2023/06/05 10:03:50;;;;;;;0.70;0.20;;;22.60;1.00;;;;;;4958571;29;20465;-77
2023/06/05 10:06:23;;;;;;;0.70;0.20;;;24.40;1.00;;;;;;4961885;29;20497;-76
2023/06/05 10:08:55;;;;;;;0.70;0.20;;;22.70;1.00;;;;;;4961371;29;20594;-77
2023/06/05 10:11:24;;;;;;;0.70;0.10;;;22.90;1.00;;;;;;4971535;28;20478;-77
2023/06/05 10:13:53;;;;;;;0.67;0.10;;;22.90;1.00;;;;;;4964452;28;20551;-77
2023/06/05 10:16:21;;;;;;;0.70;0.10;;;23.00;1.00;;;;;;4960501;29;20539;-77
2023/06/05 10:18:56;;;;;;;0.70;0.20;;;23.00;1.00;;;;;;4968642;29;20447;-77
2023/06/05 10:21:25;;;;;;;0.63;0.10;;;23.20;1.00;;;;;;4969930;28;20479;-76
2023/06/05 10:23:59;;;;;;;0.70;0.20;;;23.30;1.00;;;;;;4970300;28;20504;-76
2023/06/05 10:27:01;;;;;;;0.70;0.20;;;23.30;1.00;;;;;;4961350;28;20558;-76
2023/06/05 10:29:49;;;;;;;0.70;0.20;;;23.30;1.00;;;;;;4976152;28;21027;-77
2023/06/05 10:32:31;;;;;;;0.70;0.20;;;23.30;1.00;;;;;;4953529;29;20460;-76
2023/06/05 10:35:06;;;;;;;0.70;0.10;;;23.40;1.00;;;;;;4955554;28;20556;-76
2023/06/05 10:37:45;;;;;;;0.70;0.10;;;23.30;1.00;;;;;;4955842;29;20464;-76
2023/06/05 10:40:17;;;;;;;0.70;0.20;;;23.40;1.00;;;;;;4944691;29;20444;-77
2023/06/05 10:42:45;;;;;;;1.10;0.30;;;23.50;1.00;;;;;;4957438;29;21095;-76
2023/06/05 10:45:13;;;;;;;0.90;0.33;;;24.10;1.00;;;;;;4954917;28;20547;-76
2023/06/05 10:47:52;;;;;;;3.63;2.30;;;23.60;1.00;;;;;;4955936;29;20517;-76
2023/06/05 10:50:28;;;;;;;1.43;0.67;;;23.60;1.00;;;;;;4956188;29;20483;-76
2023/06/05 10:52:57;;;;;;;0.70;0.10;;;23.60;1.00;;;;;;4961346;29;20459;-76
2023/06/05 10:55:27;;;;;;;0.70;0.20;;;23.70;1.00;;;;;;4940815;29;20554;-77
2023/06/05 10:58:15;;;;;;;0.70;0.20;;;23.70;1.00;;;;;;4942960;29;20446;-77
2023/06/05 11:01:16;;;;;;;1.00;0.57;;;23.70;1.00;;;;;;4947873;29;20937;-77
2023/06/05 11:03:55;;;;;;;0.70;0.30;;;23.90;1.00;;;;;;4939281;29;20445;-78
2023/06/05 11:06:24;;;;;;;1.10;0.40;;;23.90;1.00;;;;;;4963235;28;20472;-76
2023/06/05 11:09:08;;;;;;;0.70;0.13;;;23.90;1.00;;;;;;4957812;28;20523;-76
2023/06/05 11:11:57;;;;;;;0.90;0.73;;;24.00;1.00;;;;;;4963647;28;20464;-77
2023/06/05 11:14:25;;;;;;;0.70;0.10;;;24.00;1.00;;;;;;4948469;28;20459;-76
2023/06/05 11:16:53;;;;;;;0.70;0.20;;;24.00;1.00;;;;;;4964345;28;20563;-77
2023/06/05 11:19:37;;;;;;;0.70;0.20;;;24.10;1.00;;;;;;4949642;29;20448;-77
2023/06/05 11:22:09;;;;;;;0.70;0.10;;;24.20;1.00;;;;;;4958392;28;20445;-75
2023/06/05 11:24:37;;;;;;;0.70;0.10;;;24.30;1.00;;;;;;4948736;28;20440;-75
2023/06/05 11:27:43;;;;;;;0.70;0.10;;;24.40;1.00;;;;;;4936941;29;20958;-77
2023/06/05 11:30:12;;;;;;;0.90;0.50;;;24.50;1.00;;;;;;4961132;28;20481;-76
2023/06/05 11:32:41;;;;;;;0.70;0.10;;;24.40;1.00;;;;;;4966674;28;20451;-76
2023/06/05 11:35:09;;;;;;;0.70;0.10;;;24.40;1.00;;;;;;4968114;28;20479;-77
2023/06/05 11:37:39;;;;;;;0.70;0.10;;;;;;;;;;4960718;28;20509;-77
2023/06/05 11:40:26;;;;;;;0.70;0.10;;;24.60;1.00;;;;;;4955151;29;20489;-75
2023/06/05 11:43:03;;;;;;;0.70;0.20;;;24.70;1.00;;;;;;4952585;29;20461;-77
2023/06/05 11:45:32;;;;;;;0.70;0.20;;;24.70;1.00;;;;;;4944572;29;20474;-76
2023/06/05 11:48:08;;;;;;;0.70;0.17;;;24.70;1.00;;;;;;4947755;28;20459;-76
2023/06/05 11:50:37;;;;;;;0.70;0.17;;;24.80;1.00;;;;;;4957097;28;20488;-76
2023/06/05 11:53:06;;;;;;;0.80;0.60;;;24.80;1.00;;;;;;4962088;28;20540;-76
2023/06/05 11:55:43;;;;;;;0.70;0.10;;;24.80;1.00;;;;;;4970499;28;20962;-76
2023/06/05 11:58:13;;;;;;;0.70;0.17;;;24.80;1.00;;;;;;4960113;28;20536;-76
2023/06/05 12:00:41;;;;;;;0.70;0.20;;;24.80;1.00;;;;;;4958893;28;20543;-76
2023/06/05 12:03:18;;;;;;;0.70;0.20;;;24.90;1.00;;;;;;4957282;28;20442;-75
2023/06/05 12:05:46;;;;;;;0.70;0.20;;;;;;;;;;4969903;28;20492;-74
2023/06/05 12:08:25;;;;;;;0.70;0.20;;;25.10;1.00;;;;;;4967166;28;20477;-76
2023/06/05 12:10:53;;;;;;;0.70;0.20;;;25.00;1.00;;;;;;4964245;28;20503;-76
2023/06/05 12:13:22;;;;;;;0.70;0.20;;;25.10;1.00;;;;;;4972119;28;20479;-76
2023/06/05 12:16:00;;;;;;;0.90;0.27;;;25.10;1.00;;;;;;4969881;28;20476;-76
2023/06/05 12:18:32;;;;;;;0.70;0.10;;;25.20;1.00;;;;;;4966026;28;20501;-75
2023/06/05 12:21:00;;;;;;;0.70;0.20;;;25.30;1.00;;;;;;4975827;28;20449;-76
2023/06/05 12:23:30;;;;;;;1.17;0.47;;;25.40;1.00;;;;;;4971676;28;20454;-76
2023/06/05 12:25:59;;;;;;;0.70;0.10;;;25.30;1.00;;;;;;4962524;28;20481;-76
2023/06/05 12:28:29;;;;;;;2.70;1.70;;;25.30;1.00;;;;;;4967486;28;20453;-76
2023/06/05 12:30:58;;;;;;;0.90;0.57;;;25.20;1.00;;;;;;4953479;29;20867;-75
2023/06/05 12:33:26;;;;;;;1.57;1.47;;;25.20;1.00;;;;;;4953471;28;20462;-74
2023/06/05 12:36:04;;;;;;;0.70;0.10;;;25.20;1.00;;;;;;4959550;28;21000;-75
2023/06/05 12:38:37;;;;;;;0.70;0.10;;;25.40;1.00;;;;;;4965109;28;20454;-75
2023/06/05 12:41:07;;;;;;;0.70;0.20;;;25.60;1.00;;;;;;4946811;29;20527;-75
2023/06/05 12:43:36;;;;;;;0.70;0.10;;;25.70;1.00;;;;;;4946505;29;20546;-75
2023/06/05 12:46:05;;;;;;;0.70;0.20;;;25.80;1.00;;;;;;4953276;29;20488;-75
2023/06/05 12:48:33;;;;;;;0.70;0.20;;;25.80;1.00;;;;;;4957991;29;21160;-75
2023/06/05 12:51:01;;;;;;;0.70;0.20;;;25.70;1.00;;;;;;4952771;28;20539;-75
2023/06/05 12:53:30;;;;;;;0.70;0.10;;;;;;;;;;4962930;28;20475;-75
2023/06/05 12:55:58;;;;;;;0.70;0.20;;;25.80;1.00;;;;;;4956225;29;21085;-74
2023/06/05 12:58:26;;;;;;;0.70;0.20;;;25.80;1.00;;;;;;4956037;28;20474;-75
2023/06/05 13:00:55;;;;;;;0.90;0.40;;;25.70;1.00;;;;;;4953971;28;20494;-75
2023/06/05 13:03:23;;;;;;;0.70;0.10;;;25.80;1.00;;;;;;4958045;28;20474;-75
2023/06/05 13:05:52;;;;;;;2.30;2.10;;;25.80;1.00;;;;;;4953131;28;20548;-76
2023/06/05 13:08:20;;;;;;;0.70;0.20;;;25.80;1.00;;;;;;4966563;28;20921;-75
2023/06/05 13:10:48;;;;;;;0.70;0.10;;;25.80;1.00;;;;;;4955482;28;20486;-76
2023/06/05 13:13:16;;;;;;;0.70;0.20;;;26.00;1.00;;;;;;4952504;28;20455;-76
2023/06/05 13:15:44;;;;;;;0.70;0.20;;;26.00;1.00;;;;;;4951521;28;20481;-76
2023/06/05 13:18:13;;;;;;;0.70;0.20;;;26.00;1.00;;;;;;4977969;28;20508;-75
2023/06/05 13:20:42;;;;;;;0.90;0.40;;;26.00;1.00;;;;;;4977160;28;20454;-75
2023/06/05 13:23:11;;;;;;;0.70;0.20;;;26.00;1.00;;;;;;4978958;28;20816;-74
2023/06/05 13:25:39;;;;;;;0.70;0.20;;;26.10;1.00;;;;;;4974464;28;20994;-74
2023/06/05 13:28:07;;;;;;;0.70;0.20;;;26.20;1.00;;;;;;4956084;29;20478;-75
2023/06/05 13:30:35;;;;;;;0.80;0.43;;;26.20;1.00;;;;;;4957353;28;20489;-76
2023/06/05 13:33:03;;;;;;;0.70;0.20;;;26.20;1.00;;;;;;4955786;28;20447;-74
2023/06/05 13:35:33;;;;;;;1.60;1.50;;;;;;;;;;4946528;28;20502;-74
2023/06/05 13:38:01;;;;;;;0.70;0.10;;;26.00;1.00;;;;;;4954715;29;20449;-75
2023/06/05 13:40:31;;;;;;;0.70;0.10;;;26.10;1.00;;;;;;4955135;29;20501;-76
2023/06/05 13:42:59;;;;;;;0.70;0.20;;;26.10;1.00;;;;;;4955292;29;20451;-76
2023/06/05 13:45:27;;;;;;;0.70;0.20;;;26.20;1.00;;;;;;4955812;29;20501;-76
2023/06/05 13:47:55;;;;;;;0.70;0.17;;;26.10;1.00;;;;;;4954413;29;20454;-77
2023/06/05 13:50:23;;;;;;;0.70;0.10;;;26.10;1.00;;;;;;4950348;28;20509;-76
2023/06/05 13:52:53;;;;;;;0.70;0.17;;;26.00;1.00;;;;;;4965265;28;20522;-75
2023/06/05 13:55:20;;;;;;;0.70;0.20;;;26.20;1.00;;;;;;4969468;28;20489;-75
2023/06/05 13:57:48;;;;;;;0.70;0.30;;;26.20;1.00;;;;;;4954599;29;20985;-75
2023/06/05 14:00:17;;;;;;;0.70;0.20;;;26.20;1.00;;;;;;4964302;28;20447;-76
2023/06/05 14:02:46;;;;;;;0.70;0.20;;;26.20;1.00;;;;;;4963387;28;20536;-75
2023/06/05 14:05:14;;;;;;;0.70;0.10;;;26.20;1.00;;;;;;4954906;28;20485;-77
2023/06/05 14:07:42;;;;;;;0.70;0.20;;;26.20;1.00;;;;;;4959346;28;20454;-76
2023/06/05 14:10:19;;;;;;;0.70;0.20;;;26.30;1.00;;;;;;4962452;28;20489;-77
2023/06/05 14:12:47;;;;;;;0.70;0.20;;;26.30;1.00;;;;;;4937904;29;20455;-76
2023/06/05 14:15:17;;;;;;;0.70;0.10;;;26.40;1.00;;;;;;4947991;29;20484;-75
2023/06/05 14:17:45;;;;;;;0.70;0.10;;;26.40;1.00;;;;;;4953216;29;21099;-75
2023/06/05 14:20:14;;;;;;;0.70;0.20;;;26.40;1.00;;;;;;4936926;29;20459;-76
2023/06/05 14:22:42;;;;;;;0.70;0.20;;;26.40;1.00;;;;;;4939252;29;20532;-77
2023/06/05 14:25:11;;;;;;;0.70;0.20;;;26.50;1.00;;;;;;4950191;28;20558;-78
2023/06/05 14:27:40;;;;;;;0.70;0.20;;;26.50;1.00;;;;;;4958952;29;20542;-76
2023/06/05 14:30:09;;;;;;;0.70;0.20;;;26.80;1.00;;;;;;4960553;29;20462;-77
2023/06/05 14:32:37;;;;;;;0.70;0.17;;;26.90;1.00;;;;;;4951834;29;20461;-78
2023/06/05 14:35:06;;;;;;;0.90;0.50;;;27.00;1.00;;;;;;4954222;29;20888;-76
2023/06/05 14:37:34;;;;;;;0.70;0.40;;;27.00;1.00;;;;;;4956291;29;20439;-77
2023/06/05 14:40:03;;;;;;;1.47;1.03;;;26.90;1.00;;;;;;4956438;29;20483;-76
2023/06/05 14:42:30;;;;;;;0.70;0.20;;;26.90;1.00;;;;;;4955945;29;20478;-77
2023/06/05 14:45:00;;;;;;;0.83;0.20;;;27.00;1.00;;;;;;4955701;28;20457;-76
2023/06/05 14:47:28;;;;;;;0.70;0.20;;;27.10;1.00;;;;;;4949719;28;20463;-76
2023/06/05 14:49:56;;;;;;;0.70;0.17;;;27.20;1.00;;;;;;4969882;28;21012;-76
2023/06/05 14:52:23;;;;;;;2.40;0.97;;;27.30;1.00;;;;;;4975633;28;20492;-77
2023/06/05 14:54:51;;;;;;;0.90;0.20;;;27.50;1.00;;;;;;4976047;28;20481;-77
2023/06/05 14:57:33;;;;;;;1.00;0.73;;;27.40;1.00;;;;;;4956131;28;21024;-77
2023/06/05 15:00:04;;;;;;;0.70;0.20;;;27.40;1.00;;;;;;4968260;28;20468;-76
2023/06/05 15:02:33;;;;;;;0.70;0.17;;;27.20;1.00;;;;;;4961974;28;20929;-77
2023/06/05 15:05:01;;;;;;;0.70;0.20;;;27.20;1.00;;;;;;4972458;28;20470;-77
2023/06/05 15:07:36;;;;;;;0.70;0.20;;;27.30;1.00;;;;;;4983022;23;20494;-77
2023/06/05 15:10:05;;;;;;;0.90;0.50;;;27.30;1.00;;;;;;4960227;28;20972;-76
2023/06/05 15:12:33;;;;;;;0.70;0.10;;;27.30;1.00;;;;;;4960258;28;20486;-76
2023/06/05 15:15:03;;;;;;;0.70;0.20;;;;;;;;;;4974680;28;20446;-78
2023/06/05 15:17:34;;;;;;;5.43;2.87;;;27.50;1.00;;;;;;4974878;28;20478;-77
2023/06/05 15:20:05;;;;;;;0.70;0.20;;;27.50;1.00;;;;;;4977316;28;20876;-76
2023/06/05 15:22:33;;;;;;;0.80;0.37;;;27.50;1.00;;;;;;4980798;28;20445;-76
2023/06/05 15:25:01;;;;;;;0.70;0.20;;;27.40;1.00;;;;;;4970654;28;20462;-76
2023/06/05 15:27:29;;;;;;;0.70;0.10;;;27.30;1.00;;;;;;4960884;28;20507;-75
2023/06/05 15:29:57;;;;;;;1.07;0.63;;;27.40;1.00;;;;;;4962968;28;20962;-77
2023/06/05 15:32:26;;;;;;;0.70;0.20;;;27.60;1.00;;;;;;4961442;28;20478;-78
2023/06/05 15:34:54;;;;;;;0.70;0.10;;;27.70;1.00;;;;;;4959242;28;20594;-76
2023/06/05 15:37:23;;;;;;;0.70;0.10;;;28.00;1.00;;;;;;4954687;28;20569;-77
2023/06/05 15:39:52;;;;;;;0.70;0.17;;;28.10;1.00;;;;;;4961801;28;20450;-75
2023/06/05 15:42:28;;;;;;;0.70;0.10;;;28.00;1.00;;;;;;4964134;28;20441;-76
2023/06/05 15:45:07;;;;;;;2.13;1.57;;;27.80;1.00;;;;;;4978036;28;20787;-76
2023/06/05 15:47:36;;;;;;;0.90;0.40;;;27.80;1.00;;;;;;4961675;28;20465;-77
2023/06/05 15:50:05;;;;;;;0.70;0.10;;;27.70;1.00;;;;;;4981108;28;20469;-75
2023/06/05 15:52:35;;;;;;;0.70;0.30;;;27.80;1.00;;;;;;4980022;28;20572;-75
2023/06/05 15:55:03;;;;;;;0.70;0.10;;;25.90;1.00;;;;;;4965007;28;20488;-75
2023/06/05 15:57:31;;;;;;;0.70;0.20;;;27.80;1.00;;;;;;4979894;28;20477;-76
2023/06/05 15:59:59;;;;;;;0.70;0.20;;;27.90;1.00;;;;;;4982641;28;20469;-76
2023/06/05 16:02:27;;;;;;;0.90;0.33;;;27.90;1.00;;;;;;4966107;28;20542;-77
2023/06/05 16:04:59;;;;;;;0.70;0.20;;;27.90;1.00;;;;;;4961593;28;20470;-78
2023/06/05 16:07:26;;;;;;;0.70;0.20;;;28.00;1.00;;;;;;4961087;29;20816;-77
2023/06/05 16:09:57;;;;;;;0.70;0.20;;;27.90;1.00;;;;;;4971750;28;20505;-76
2023/06/05 16:12:25;;;;;;;2.03;0.57;;;27.90;1.00;;;;;;4960745;29;20505;-75
2023/06/05 16:14:53;;;;;;;0.70;0.10;;;;;;;;;;4962382;28;20863;-75
2023/06/05 16:17:21;;;;;;;0.70;0.20;;;28.00;1.00;;;;;;4979939;28;20508;-76
2023/06/05 16:19:49;;;;;;;0.70;0.20;;;28.00;1.00;;;;;;4982016;28;20793;-75
2023/06/05 16:22:26;;;;;;;0.70;0.30;;;27.90;1.00;;;;;;4982547;28;20444;-77
2023/06/05 16:24:54;;;;;;;0.80;0.57;;;27.80;1.00;;;;;;4982517;28;20485;-78
2023/06/05 16:27:22;;;;;;;1.80;1.50;;;27.90;1.00;;;;;;4980056;28;20483;-76
2023/06/05 16:29:51;;;;;;;0.80;0.30;;;27.80;1.00;;;;;;4980304;28;20538;-77
2023/06/05 16:32:20;;;;;;;0.70;0.20;;;27.80;1.00;;;;;;4978193;28;20477;-76
2023/06/05 16:34:47;;;;;;;0.70;0.20;;;28.00;1.00;;;;;;4972207;28;20550;-77
2023/06/05 16:37:15;;;;;;;0.80;0.20;;;28.40;1.00;;;;;;4962210;29;20477;-76
2023/06/05 16:39:45;;;;;;;0.90;0.40;;;28.40;1.00;;;;;;4977120;28;20512;-78
2023/06/05 16:42:13;;;;;;;0.80;0.50;;;28.40;1.00;;;;;;4968441;28;20524;-75
2023/06/05 16:44:43;;;;;;;1.10;0.40;;;28.30;1.00;;;;;;4959058;29;20892;-75
2023/06/05 16:47:11;;;;;;;0.80;0.30;;;27.90;1.00;;;;;;4959044;29;20894;-79
2023/06/05 16:49:39;;;;;;;0.77;0.23;;;27.80;1.00;;;;;;4959470;28;20873;-76
2023/06/05 16:52:07;;;;;;;0.70;0.20;;;27.80;1.00;;;;;;4946308;28;20511;-79
2023/06/05 16:54:35;;;;;;;1.73;0.43;;;;;;;;;;4959754;28;20446;-76
2023/06/05 16:57:05;;;;;;;0.80;0.30;;;28.00;1.00;;;;;;4969173;28;20484;-75
2023/06/05 16:59:33;;;;;;;0.70;0.20;;;28.10;1.00;;;;;;4976698;28;20446;-77
2023/06/05 17:02:01;;;;;;;0.70;0.20;;;28.20;1.00;;;;;;4958348;29;20447;-76
2023/06/05 17:04:29;;;;;;;0.80;0.50;;;28.30;1.00;;;;;;4957380;29;20996;-77
2023/06/05 17:06:57;;;;;;;0.70;0.20;;;28.30;1.00;;;;;;4959582;28;20545;-77
2023/06/05 17:09:26;;;;;;;0.70;0.10;;;28.30;1.00;;;;;;4957702;29;20467;-77
2023/06/05 17:11:55;;;;;;;0.70;0.20;;;28.20;1.00;;;;;;4958926;29;20488;-77
2023/06/05 17:14:24;;;;;;;0.70;0.20;;;28.30;1.00;;;;;;4957613;29;20487;-79
2023/06/05 17:16:52;;;;;;;0.70;0.20;;;28.30;1.00;;;;;;4958212;28;20558;-75
2023/06/05 17:19:20;;;;;;;0.70;0.20;;;28.30;1.00;;;;;;4956991;29;20894;-77